Time;durP1;ratioP1;P1;durP2;ratioP2;P2;SDS_P1;SDS_P2;PMS_P1;PMS_P2;Temp;Humidity;BMP_temperature;BMP_pressure;BME280_temperature;BME280_humidity;BME280_pressure;Samples;Min_cycle;Max_cycle;Signal;HPM_P1;HPM_P2
2023/04/30 00:00:50;;;;;;;11.20;3.85;;;;;;;5.63;100.00;98527.75;5139301;28;20184;-59
2023/04/30 00:03:16;;;;;;;7.70;3.72;;;;;;;5.64;100.00;98532.06;5139476;28;20082;-56
2023/04/30 00:05:42;;;;;;;6.32;3.10;;;;;;;5.58;100.00;98517.13;5139142;27;20441;-58
2023/04/30 00:08:08;;;;;;;9.10;3.78;;;;;;;5.60;100.00;98534.69;5139344;28;20157;-55
2023/04/30 00:10:34;;;;;;;12.82;3.63;;;;;;;5.53;100.00;98530.97;5139073;28;20043;-55
2023/04/30 00:13:00;;;;;;;9.88;3.75;;;;;;;5.56;100.00;98514.75;5139420;27;20051;-56
2023/04/30 00:15:26;;;;;;;11.00;3.40;;;;;;;5.49;100.00;98541.75;5138928;28;20416;-58
2023/04/30 00:17:52;;;;;;;9.45;4.07;;;;;;;5.53;100.00;98541.84;5138327;27;20107;-60
2023/04/30 00:20:18;;;;;;;9.63;3.47;;;;;;;5.50;100.00;98532.47;5138515;27;20051;-61
2023/04/30 00:22:44;;;;;;;8.68;4.03;;;;;;;5.40;100.00;98535.69;5138702;27;20043;-59
2023/04/30 00:25:10;;;;;;;6.85;2.92;;;;;;;5.43;100.00;98534.97;5139033;28;20153;-63
2023/04/30 00:27:36;;;;;;;15.52;3.75;;;;;;;5.22;100.00;98501.78;5138913;28;20057;-62
2023/04/30 00:30:02;;;;;;;6.53;3.35;;;;;;;5.34;100.00;98493.59;5139008;27;20189;-64
2023/04/30 00:32:28;;;;;;;7.22;3.35;;;;;;;5.28;100.00;98497.69;5138800;28;20132;-56
2023/04/30 00:34:54;;;;;;;9.13;3.50;;;;;;;5.09;100.00;98496.38;5138794;27;20047;-56
2023/04/30 00:37:21;;;;;;;7.53;3.80;;;;;;;5.30;100.00;98495.38;5138623;28;20055;-63
2023/04/30 00:39:47;;;;;;;5.90;3.47;;;;;;;5.29;100.00;98480.22;5138924;28;20138;-60
2023/04/30 00:42:12;;;;;;;7.13;4.20;;;;;;;5.13;100.00;98474.72;5138447;28;20078;-63
2023/04/30 00:44:38;;;;;;;6.03;3.28;;;;;;;5.10;100.00;98489.03;5138904;28;20085;-62
2023/04/30 00:47:04;;;;;;;5.45;3.10;;;;;;;5.19;100.00;98486.94;5138449;28;20059;-64
2023/04/30 00:49:30;;;;;;;6.22;3.63;;;;;;;5.23;100.00;98497.91;5138845;28;20069;-59
2023/04/30 00:51:56;;;;;;;7.88;3.85;;;;;;;5.21;100.00;98509.13;5138276;28;20138;-59
2023/04/30 00:54:24;;;;;;;6.05;2.85;;;;;;;5.08;100.00;98515.75;5138528;28;20051;-57
2023/04/30 00:56:50;;;;;;;8.80;3.67;;;;;;;5.17;100.00;98498.16;5138482;27;20057;-64
2023/04/30 00:59:16;;;;;;;10.48;3.17;;;;;;;5.04;100.00;98504.00;5139427;28;20055;-59
2023/04/30 01:01:42;;;;;;;5.28;3.15;;;;;;;5.02;100.00;98492.66;5138518;28;20131;-60
2023/04/30 01:04:08;;;;;;;5.35;2.78;;;;;;;4.78;100.00;98477.22;5138334;28;20064;-64
2023/04/30 01:06:34;;;;;;;10.85;3.28;;;;;;;5.00;100.00;98478.63;5138245;27;20108;-64
2023/04/30 01:09:00;;;;;;;4.97;3.25;;;;;;;4.72;100.00;98447.59;5138189;27;20054;-61
2023/04/30 01:11:39;;;;;;;6.55;3.22;;;;;;;5.12;100.00;98476.66;5138444;28;20111;-60
2023/04/30 01:14:10;;;;;;;6.32;2.90;;;;;;;4.90;100.00;98466.34;5138199;28;20422;-65
2023/04/30 01:16:42;;;;;;;7.30;2.95;;;;;;;5.15;100.00;98486.84;5138342;28;20357;-62
2023/04/30 01:19:17;;;;;;;6.22;3.35;;;;;;;4.98;100.00;98489.06;5138225;28;20347;-58
2023/04/30 01:21:43;;;;;;;7.72;3.83;;;;;;;4.83;100.00;98475.06;5138059;27;20141;-62
2023/04/30 01:24:31;;;;;;;10.88;4.15;;;;;;;4.94;100.00;98450.94;5138164;28;20145;-57
2023/04/30 01:27:13;;;;;;;7.30;3.45;;;;;;;5.09;100.00;98447.47;5137769;27;20103;-60
2023/04/30 01:29:41;;;;;;;5.07;3.10;;;;;;;5.09;100.00;98480.06;5137784;27;20051;-64
2023/04/30 01:32:07;;;;;;;8.18;3.40;;;;;;;5.20;100.00;98464.09;5137721;28;20141;-63
2023/04/30 01:34:33;;;;;;;9.38;3.97;;;;;;;4.87;100.00;98437.16;5138189;27;20137;-64
2023/04/30 01:37:11;;;;;;;4.70;2.85;;;;;;;4.82;100.00;98419.16;5137782;27;20055;-59
2023/04/30 01:39:55;;;;;;;8.85;3.63;;;;;;;4.91;100.00;98433.41;5137582;28;20051;-62
2023/04/30 01:42:22;;;;;;;;;;;;;;;4.90;100.00;98431.03;5138207;28;20047;-60
2023/04/30 01:45:06;;;;;;;8.70;3.53;;;;;;;4.88;100.00;98417.00;5137488;28;19923;-62
2023/04/30 01:47:38;;;;;;;7.30;3.22;;;;;;;4.59;100.00;98399.09;5137884;28;20065;-64
2023/04/30 01:50:10;;;;;;;7.03;3.53;;;;;;;4.83;100.00;98381.94;5137583;28;20061;-60
2023/04/30 01:52:41;;;;;;;5.40;2.95;;;;;;;4.79;100.00;98386.47;5137988;28;20393;-61
2023/04/30 01:55:11;;;;;;;11.30;4.10;;;;;;;4.63;100.00;98379.06;5137659;28;20051;-64
2023/04/30 01:57:40;;;;;;;6.40;3.00;;;;;;;4.45;100.00;98364.19;5137489;28;20138;-63
2023/04/30 02:00:09;;;;;;;6.22;3.15;;;;;;;4.66;100.00;98385.72;5137656;27;20057;-58
2023/04/30 02:02:35;;;;;;;8.23;2.58;;;;;;;4.63;100.00;98356.53;5137434;28;20051;-61
2023/04/30 02:05:01;;;;;;;6.22;3.13;;;;;;;4.57;100.00;98374.22;5137550;27;20055;-63
2023/04/30 02:07:37;;;;;;;6.95;3.28;;;;;;;4.55;100.00;98371.84;5137298;28;20055;-64
2023/04/30 02:10:04;;;;;;;5.75;2.92;;;;;;;4.68;100.00;98373.38;5137712;28;20098;-64
2023/04/30 02:12:30;;;;;;;7.68;2.85;;;;;;;4.71;100.00;98374.63;5137163;28;20051;-62
2023/04/30 02:14:56;;;;;;;7.13;2.75;;;;;;;4.59;100.00;98388.22;5137565;28;20384;-64
2023/04/30 02:17:23;;;;;;;9.38;2.60;;;;;;;4.55;100.00;98382.69;5136979;27;20108;-58
2023/04/30 02:19:49;;;;;;;5.72;2.65;;;;;;;4.47;100.00;98376.28;5137294;28;20138;-58
2023/04/30 02:22:15;;;;;;;4.90;2.78;;;;;;;4.33;100.00;98377.78;5137346;28;20050;-59
2023/04/30 02:24:40;;;;;;;3.10;2.60;;;;;;;4.42;100.00;98384.66;5136949;28;20043;-62
2023/04/30 02:27:06;;;;;;;6.30;3.13;;;;;;;4.48;100.00;98371.66;5137339;27;20055;-60
2023/04/30 02:29:33;;;;;;;6.40;2.60;;;;;;;4.63;100.00;98383.69;5136937;28;20051;-63
2023/04/30 02:31:59;;;;;;;5.85;2.80;;;;;;;4.47;100.00;98398.00;5137108;28;20445;-57
2023/04/30 02:34:26;;;;;;;4.95;2.83;;;;;;;4.43;100.00;98361.00;5137002;28;20047;-62
2023/04/30 02:36:52;;;;;;;10.15;3.55;;;;;;;4.66;100.00;98362.06;5137105;27;20051;-59
2023/04/30 02:39:18;;;;;;;8.40;2.80;;;;;;;4.30;100.00;98364.88;5136774;28;20109;-57
2023/04/30 02:41:43;;;;;;;4.68;2.67;;;;;;;4.31;100.00;98366.50;5138211;27;20051;-58
2023/04/30 02:44:10;;;;;;;6.05;2.53;;;;;;;4.50;100.00;98382.97;5140414;28;20047;-57
2023/04/30 02:46:36;;;;;;;6.10;3.13;;;;;;;4.66;100.00;98393.88;5140884;27;20051;-64
2023/04/30 02:49:02;;;;;;;4.97;2.42;;;;;;;4.62;100.00;98404.63;5140283;28;20332;-61
2023/04/30 02:51:28;;;;;;;5.53;2.50;;;;;;;4.53;100.00;98384.97;5140424;27;20093;-60
2023/04/30 02:53:54;;;;;;;7.32;2.67;;;;;;;4.49;100.00;98401.16;5140295;28;20055;-59
2023/04/30 02:56:20;;;;;;;6.03;2.70;;;;;;;4.71;100.00;98408.00;5140076;28;20055;-57
2023/04/30 02:58:46;;;;;;;6.28;2.22;;;;;;;4.61;100.00;98419.34;5140509;27;20146;-60
2023/04/30 03:01:13;;;;;;;6.50;2.55;;;;;;;4.81;100.00;98422.22;5140035;28;20047;-64
2023/04/30 03:03:39;;;;;;;7.00;2.65;;;;;;;4.80;100.00;98428.78;5140502;27;20089;-60
2023/04/30 03:06:05;;;;;;;5.00;2.70;;;;;;;4.76;100.00;98420.53;5140063;27;20047;-64
2023/04/30 03:08:32;;;;;;;9.68;2.90;;;;;;;4.77;100.00;98426.78;5140358;28;20294;-61
2023/04/30 03:10:58;;;;;;;6.90;3.05;;;;;;;4.67;100.00;98438.91;5140017;28;20134;-64
2023/04/30 03:13:25;;;;;;;7.25;2.97;;;;;;;4.95;100.00;98417.97;5140375;27;20396;-63
2023/04/30 03:15:56;;;;;;;5.47;2.70;;;;;;;5.32;100.00;98446.91;5139776;28;20047;-64
2023/04/30 03:18:22;;;;;;;5.95;2.92;;;;;;;5.67;100.00;98485.16;5139814;28;20435;-64
2023/04/30 03:20:48;;;;;;;5.57;2.55;;;;;;;6.64;100.00;98555.63;5140050;28;20083;-64
2023/04/30 03:23:14;;;;;;;6.05;2.60;;;;;;;7.19;100.00;98608.25;5140012;28;20071;-63
2023/04/30 03:25:40;;;;;;;4.43;2.83;;;;;;;7.19;100.00;98649.13;5139842;27;20078;-58
2023/04/30 03:28:06;;;;;;;6.60;3.35;;;;;;;8.15;100.00;98694.84;5139905;28;20055;-64
2023/04/30 03:30:32;;;;;;;5.90;2.85;;;;;;;8.57;100.00;98717.91;5139863;28;20047;-60
2023/04/30 03:32:58;;;;;;;6.15;3.00;;;;;;;8.75;100.00;98738.16;5139596;28;20051;-60
2023/04/30 03:35:24;;;;;;;3.88;2.65;;;;;;;8.34;100.00;98762.31;5139944;27;20192;-59
2023/04/30 03:37:50;;;;;;;5.45;3.00;;;;;;;8.23;100.00;98775.75;5139520;28;20104;-58
2023/04/30 03:40:16;;;;;;;3.97;2.75;;;;;;;9.05;100.00;98773.81;5139941;28;20138;-58
2023/04/30 03:42:42;;;;;;;4.43;2.60;;;;;;;9.74;100.00;98797.63;5139465;28;20047;-62
2023/04/30 03:45:09;;;;;;;9.52;2.75;;;;;;;9.55;98.48;98795.75;5139930;27;20047;-61
2023/04/30 03:47:35;;;;;;;5.20;3.03;;;;;;;10.10;94.55;98799.72;5139652;27;20150;-59
2023/04/30 03:50:02;;;;;;;6.85;3.45;;;;;;;11.19;93.09;98800.59;5139586;27;20062;-59
2023/04/30 03:52:29;;;;;;;8.55;2.63;;;;;;;10.91;87.08;98806.59;5139430;27;20043;-62
2023/04/30 03:54:54;;;;;;;5.18;2.90;;;;;;;11.52;88.92;98810.69;5139198;28;20488;-58
2023/04/30 03:57:20;;;;;;;6.55;2.80;;;;;;;10.71;83.93;98827.13;5140301;28;20066;-57
2023/04/30 03:59:47;;;;;;;5.20;3.05;;;;;;;11.16;83.17;98817.03;5139703;28;20480;-64
2023/04/30 04:02:13;;;;;;;8.93;2.85;;;;;;;12.28;84.32;98814.00;5139621;28;20375;-59
2023/04/30 04:04:40;;;;;;;4.72;2.67;;;;;;;12.81;77.75;98830.72;5139209;27;20047;-61
2023/04/30 04:07:08;;;;;;;6.35;2.90;;;;;;;12.87;79.24;98826.41;5139358;27;20051;-61
2023/04/30 04:09:34;;;;;;;4.68;2.67;;;;;;;13.26;76.83;98827.72;5139066;28;20051;-65
2023/04/30 04:12:00;;;;;;;8.57;3.15;;;;;;;12.81;76.37;98829.94;5139436;28;20054;-66
2023/04/30 04:14:26;;;;;;;3.80;2.90;;;;;;;12.78;72.81;98827.97;5139134;27;20058;-58
2023/04/30 04:16:53;;;;;;;5.95;2.95;;;;;;;13.53;73.39;98831.69;5139056;28;20138;-60
2023/04/30 04:19:18;;;;;;;7.75;2.92;;;;;;;11.97;73.65;98824.41;5138901;28;20047;-59
2023/04/30 04:21:44;;;;;;;5.13;2.85;;;;;;;12.65;70.84;98830.25;5139023;28;20100;-61
2023/04/30 04:24:11;;;;;;;6.20;2.95;;;;;;;13.06;68.86;98836.31;5138840;27;20184;-65
2023/04/30 04:26:37;;;;;;;4.03;2.58;;;;;;;12.98;68.50;98833.91;5138855;28;20047;-58
2023/04/30 04:29:03;;;;;;;11.45;3.30;;;;;;;13.29;69.22;98829.69;5138945;28;20320;-64
2023/04/30 04:31:30;;;;;;;5.82;2.80;;;;;;;14.25;67.50;98829.63;5138742;28;20082;-59
2023/04/30 04:33:59;;;;;;;7.13;2.80;;;;;;;14.32;66.94;98826.84;5138907;27;20401;-61
2023/04/30 04:36:26;;;;;;;11.73;3.00;;;;;;;13.67;66.68;98832.88;5138410;27;20196;-61
2023/04/30 04:38:52;;;;;;;5.65;3.10;;;;;;;13.92;67.05;98821.81;5139016;28;20431;-65
2023/04/30 04:41:18;;;;;;;4.45;3.10;;;;;;;13.96;65.39;98822.59;5138426;28;20143;-65
2023/04/30 04:43:44;;;;;;;4.53;2.63;;;;;;;13.27;65.15;98834.81;5138929;27;20187;-61
2023/04/30 04:46:10;;;;;;;8.55;3.47;;;;;;;12.87;66.71;98831.13;5138681;27;20051;-65
2023/04/30 04:48:36;;;;;;;7.93;2.90;;;;;;;13.74;64.75;98833.66;5138606;28;20107;-61
2023/04/30 04:51:03;;;;;;;4.85;3.20;;;;;;;14.43;63.09;98829.59;5138689;28;20058;-57
2023/04/30 04:53:29;;;;;;;5.10;2.85;;;;;;;14.01;63.57;98823.00;5138196;28;20050;-66
2023/04/30 04:55:56;;;;;;;5.93;3.10;;;;;;;15.82;61.96;98825.28;5138632;27;20078;-65
2023/04/30 04:58:22;;;;;;;5.68;3.05;;;;;;;14.94;61.88;98819.97;5138177;28;20051;-64
2023/04/30 05:00:48;;;;;;;6.00;3.40;;;;;;;15.15;61.01;98821.03;5138564;27;20434;-62
2023/04/30 05:03:14;;;;;;;9.43;3.08;;;;;;;14.92;59.37;98827.06;5138116;28;20069;-63
2023/04/30 05:05:39;;;;;;;5.78;3.00;;;;;;;14.75;61.00;98818.47;5137382;27;20047;-59
2023/04/30 05:08:06;;;;;;;6.13;2.88;;;;;;;15.49;59.87;98816.47;5138134;28;20396;-57
2023/04/30 05:10:33;;;;;;;7.13;2.70;;;;;;;16.21;58.99;98818.59;5138482;27;20057;-59
2023/04/30 05:12:59;;;;;;;8.50;3.28;;;;;;;15.96;57.35;98821.59;5137690;28;20127;-65
2023/04/30 05:15:25;;;;;;;6.88;3.15;;;;;;;16.29;58.10;98814.56;5137835;27;20455;-61
2023/04/30 05:17:51;;;;;;;6.05;3.17;;;;;;;17.12;57.07;98811.56;5138184;27;20047;-59
2023/04/30 05:20:17;;;;;;;4.50;3.20;;;;;;;16.66;56.82;98812.94;5137839;28;20470;-58
2023/04/30 05:22:43;;;;;;;8.35;3.40;;;;;;;18.27;55.18;98810.50;5138249;28;20051;-62
2023/04/30 05:25:10;;;;;;;13.43;4.18;;;;;;;18.43;55.11;98812.59;5137718;28;20416;-66
2023/04/30 05:27:36;;;;;;;5.78;2.67;;;;;;;18.31;54.46;98809.22;5138171;28;20134;-65
2023/04/30 05:30:02;;;;;;;6.65;3.03;;;;;;;17.91;54.25;98802.06;5137616;28;20116;-63
2023/04/30 05:32:28;;;;;;;4.95;3.00;;;;;;;17.51;54.39;98816.53;5138108;27;20062;-56
2023/04/30 05:34:54;;;;;;;8.90;3.58;;;;;;;17.90;54.97;98801.28;5137491;27;20434;-64
2023/04/30 05:37:21;;;;;;;9.30;2.95;;;;;;;17.26;54.72;98794.78;5138033;28;20051;-57
2023/04/30 05:39:47;;;;;;;5.88;3.15;;;;;;;18.90;53.62;98798.56;5137554;28;20051;-60
2023/04/30 05:42:14;;;;;;;6.47;2.83;;;;;;;18.47;54.13;98796.66;5137870;28;20054;-62
2023/04/30 05:44:40;;;;;;;6.07;2.95;;;;;;;18.50;53.93;98796.56;5137468;28;20047;-63
2023/04/30 05:47:06;;;;;;;7.13;3.03;;;;;;;17.99;53.65;98809.81;5137607;28;20043;-58
2023/04/30 05:49:32;;;;;;;4.65;2.90;;;;;;;18.39;52.48;98798.75;5137723;28;20047;-54
2023/04/30 05:51:58;;;;;;;6.65;3.28;;;;;;;19.10;52.85;98790.97;5137343;27;20387;-60
2023/04/30 05:54:24;;;;;;;4.70;3.30;;;;;;;20.16;51.83;98800.69;5137692;28;20047;-62
2023/04/30 05:56:50;;;;;;;9.32;2.95;;;;;;;19.27;52.09;98792.56;5137218;28;20070;-65
2023/04/30 05:59:17;;;;;;;6.45;3.55;;;;;;;20.23;51.15;98794.16;5137706;28;20096;-64
2023/04/30 06:01:43;;;;;;;5.10;3.13;;;;;;;17.97;54.21;98795.59;5137168;27;20417;-64
2023/04/30 06:04:10;;;;;;;6.93;3.20;;;;;;;18.21;53.60;98790.78;5137677;27;20267;-58
2023/04/30 06:06:36;;;;;;;5.50;3.00;;;;;;;19.11;53.03;98788.97;5137075;27;20055;-62
2023/04/30 06:09:02;;;;;;;5.30;2.65;;;;;;;19.71;51.23;98793.09;5137489;28;20043;-65
2023/04/30 06:11:29;;;;;;;7.95;2.70;;;;;;;18.03;51.27;98787.59;5137027;28;20047;-59
2023/04/30 06:13:55;;;;;;;5.63;2.80;;;;;;;19.27;51.64;98783.44;5137183;28;20143;-56
2023/04/30 06:16:22;;;;;;;5.43;3.42;;;;;;;18.35;51.77;98775.84;5137877;27;20063;-63
2023/04/30 06:18:49;;;;;;;3.80;2.63;;;;;;;17.97;52.98;98786.50;5140770;28;20165;-56
2023/04/30 06:21:14;;;;;;;7.50;2.80;;;;;;;19.14;51.55;98783.34;5140800;28;20119;-63
2023/04/30 06:23:40;;;;;;;3.10;2.28;;;;;;;18.52;51.23;98780.25;5140838;28;20370;-61
2023/04/30 06:26:06;;;;;;;5.10;3.17;;;;;;;17.94;52.41;98773.47;5141029;28;20054;-58
2023/04/30 06:28:32;;;;;;;5.85;2.88;;;;;;;19.66;51.30;98776.97;5140737;28;20057;-56
2023/04/30 06:30:58;;;;;;;4.53;2.67;;;;;;;19.10;50.87;98770.75;5140949;28;20043;-57
2023/04/30 06:33:25;;;;;;;4.78;2.88;;;;;;;17.74;53.02;98774.19;5140663;28;20332;-65
2023/04/30 06:35:54;;;;;;;8.63;2.60;;;;;;;18.97;52.17;98765.84;5141131;27;20375;-62
2023/04/30 06:38:20;;;;;;;11.00;2.17;;;;;;;18.67;51.27;98766.09;5140401;28;20058;-59
2023/04/30 06:40:46;;;;;;;4.05;2.40;;;;;;;18.66;50.86;98764.50;5140888;28;20134;-62
2023/04/30 06:43:12;;;;;;;5.03;2.22;;;;;;;19.71;51.26;98765.28;5140638;28;20385;-61
2023/04/30 06:45:39;;;;;;;3.13;2.10;;;;;;;18.86;51.75;98754.22;5140575;28;20107;-65
2023/04/30 06:48:05;;;;;;;2.28;2.00;;;;;;;20.14;49.64;98758.59;5140570;28;20051;-57
2023/04/30 06:50:31;;;;;;;6.15;2.50;;;;;;;19.13;50.30;98764.31;5140326;27;20093;-62
2023/04/30 06:52:57;;;;;;;3.53;2.22;;;;;;;20.33;49.50;98754.13;5140503;28;20099;-60
2023/04/30 06:55:23;;;;;;;6.47;2.10;;;;;;;19.46;50.43;98752.00;5140114;28;20103;-62
2023/04/30 06:57:49;;;;;;;4.63;2.38;;;;;;;20.68;50.53;98751.53;5140430;28;20141;-59
2023/04/30 07:00:15;;;;;;;7.18;2.22;;;;;;;20.58;50.69;98753.41;5140017;27;20380;-58
2023/04/30 07:02:42;;;;;;;4.07;2.97;;;;;;;21.57;49.20;98750.78;5140477;28;20062;-61
2023/04/30 07:05:10;;;;;;;6.00;2.70;;;;;;;20.71;50.29;98755.44;5139961;27;20051;-60
2023/04/30 07:07:36;;;;;;;8.40;3.15;;;;;;;21.48;49.23;98745.09;5140395;28;20316;-61
2023/04/30 07:10:03;;;;;;;5.72;2.45;;;;;;;21.93;49.02;98741.19;5139840;28;20185;-63
2023/04/30 07:12:28;;;;;;;5.57;2.80;;;;;;;21.22;49.16;98733.16;5140079;28;20054;-58
2023/04/30 07:14:54;;;;;;;4.93;2.20;;;;;;;20.24;49.83;98737.25;5140193;28;20476;-62
2023/04/30 07:17:20;;;;;;;3.17;2.20;;;;;;;20.52;50.77;98735.69;5139685;28;20051;-62
2023/04/30 07:19:46;;;;;;;4.40;2.30;;;;;;;20.38;49.98;98733.28;5140098;28;20043;-63
2023/04/30 07:22:12;;;;;;;5.72;2.60;;;;;;;21.93;49.83;98743.97;5139891;27;20306;-66
2023/04/30 07:24:39;;;;;;;5.47;2.50;;;;;;;21.96;49.23;98735.47;5140130;28;20054;-65
2023/04/30 07:27:06;;;;;;;4.07;2.90;;;;;;;22.22;48.32;98736.16;5139233;27;20309;-65
2023/04/30 07:29:32;;;;;;;5.05;3.05;;;;;;;22.33;47.83;98738.59;5140057;28;20047;-61
2023/04/30 07:31:58;;;;;;;3.42;2.00;;;;;;;21.48;47.57;98731.94;5139641;28;20051;-59
2023/04/30 07:34:24;;;;;;;6.07;2.42;;;;;;;22.62;47.51;98734.69;5139493;27;20055;-63
2023/04/30 07:36:50;;;;;;;6.47;3.20;;;;;;;21.47;47.31;98741.53;5139292;27;20057;-61
2023/04/30 07:39:17;;;;;;;3.50;2.78;;;;;;;22.18;47.42;98727.13;5139946;28;20055;-64
2023/04/30 07:41:43;;;;;;;3.78;2.50;;;;;;;21.72;47.79;98725.94;5139516;28;20074;-62
2023/04/30 07:44:10;;;;;;;5.28;2.47;;;;;;;22.01;47.35;98729.31;5139351;28;20428;-65
2023/04/30 07:46:36;;;;;;;4.93;2.75;;;;;;;22.26;47.62;98728.44;5139606;27;20043;-65
2023/04/30 07:49:02;;;;;;;2.90;2.47;;;;;;;21.98;47.76;98732.22;5139303;28;20055;-66
2023/04/30 07:51:28;;;;;;;4.95;3.00;;;;;;;23.45;46.66;98711.44;5139532;28;20301;-65
2023/04/30 07:53:54;;;;;;;6.18;2.30;;;;;;;21.52;47.55;98723.44;5139130;28;20137;-64
2023/04/30 07:56:20;;;;;;;8.48;2.83;;;;;;;21.47;47.13;98721.22;5139387;28;20062;-65
2023/04/30 07:58:47;;;;;;;5.45;2.80;;;;;;;21.49;46.84;98710.38;5139085;28;20147;-60
2023/04/30 08:01:13;;;;;;;5.88;2.30;;;;;;;21.58;48.18;98704.91;5139466;28;20423;-62
2023/04/30 08:03:39;;;;;;;6.47;3.70;;;;;;;22.25;47.64;98698.19;5139012;28;20051;-60
2023/04/30 08:06:05;;;;;;;8.10;3.13;;;;;;;23.45;45.79;98699.47;5139437;27;20074;-62
2023/04/30 08:08:31;;;;;;;5.50;3.10;;;;;;;23.60;46.15;98702.47;5138869;28;20443;-66
2023/04/30 08:10:57;;;;;;;5.53;2.90;;;;;;;24.31;45.62;98699.34;5139193;27;20051;-64
2023/04/30 08:13:23;;;;;;;6.30;3.50;;;;;;;24.54;45.47;98700.72;5138783;28;20383;-62
2023/04/30 08:15:49;;;;;;;3.78;2.47;;;;;;;24.67;45.28;98700.53;5139025;28;20085;-63
2023/04/30 08:18:15;;;;;;;3.60;2.60;;;;;;;25.03;44.59;98694.00;5139059;28;20051;-63
2023/04/30 08:20:41;;;;;;;4.28;2.60;;;;;;;22.94;46.04;98694.38;5138296;28;20058;-62
2023/04/30 08:23:07;;;;;;;5.55;2.72;;;;;;;24.13;44.62;98700.16;5138904;28;20055;-59
2023/04/30 08:25:33;;;;;;;7.60;3.50;;;;;;;24.66;44.20;98693.38;5138785;28;20091;-59
2023/04/30 08:27:59;;;;;;;8.43;2.60;;;;;;;23.95;44.66;98694.56;5138951;28;20055;-64
2023/04/30 08:30:25;;;;;;;6.20;3.60;;;;;;;24.65;44.38;98686.97;5138662;27;20051;-64
2023/04/30 08:32:51;;;;;;;5.40;3.20;;;;;;;24.61;44.71;98688.41;5139068;28;20138;-66
2023/04/30 08:35:18;;;;;;;6.30;2.33;;;;;;;23.57;44.29;98683.81;5138510;27;20314;-64
2023/04/30 08:37:44;;;;;;;4.53;2.35;;;;;;;25.27;43.21;98685.63;5138844;28;20325;-62
2023/04/30 08:40:11;;;;;;;4.65;2.05;;;;;;;23.15;43.35;98671.13;5137676;27;20047;-66
2023/04/30 08:42:41;;;;;;;4.35;2.50;;;;;;;21.99;43.85;98673.19;5138685;28;20144;-63
2023/04/30 08:45:10;;;;;;;4.03;2.55;;;;;;;22.14;44.79;98672.66;5138777;27;20055;-62
2023/04/30 08:47:37;;;;;;;3.95;2.10;;;;;;;23.77;44.23;98686.94;5138483;28;20444;-61
2023/04/30 08:50:04;;;;;;;6.22;2.83;;;;;;;23.79;43.65;98672.47;5138760;27;20301;-64
2023/04/30 08:52:33;;;;;;;77.47;41.92;;;;;;;22.73;44.86;98670.81;5138362;28;20133;-60
2023/04/30 08:55:00;;;;;;;24.42;3.22;;;;;;;23.95;44.09;98683.34;5138529;28;20464;-61
2023/04/30 08:57:26;;;;;;;3.83;2.60;;;;;;;22.72;44.13;98672.03;5138201;28;20051;-60
2023/04/30 08:59:53;;;;;;;5.47;2.40;;;;;;;22.21;44.78;98666.81;5138694;27;20081;-60
2023/04/30 09:02:19;;;;;;;11.38;2.13;;;;;;;21.46;44.44;98670.25;5138028;28;20146;-64
2023/04/30 09:04:46;;;;;;;4.72;2.80;;;;;;;22.15;44.56;98663.84;5139163;27;20108;-58
2023/04/30 09:07:13;;;;;;;2.90;2.10;;;;;;;21.79;44.45;98653.97;5138903;28;20110;-64
2023/04/30 09:09:39;;;;;;;7.40;2.70;;;;;;;22.41;44.66;98653.28;5138057;27;20502;-57
2023/04/30 09:12:13;;;;;;;3.33;2.33;;;;;;;23.78;43.69;98656.94;5138301;28;20138;-63
2023/04/30 09:14:39;;;;;;;24.42;3.28;;;;;;;22.44;44.50;98659.97;5137954;28;20051;-59
2023/04/30 09:17:05;;;;;;;3.20;2.30;;;;;;;22.94;45.04;98660.84;5138129;27;20316;-61
2023/04/30 09:19:31;;;;;;;6.40;2.72;;;;;;;22.50;44.87;98650.53;5137804;27;20098;-57
2023/04/30 09:21:57;;;;;;;9.13;2.28;;;;;;;21.57;44.81;98662.28;5138250;28;20137;-61
2023/04/30 09:24:24;;;;;;;3.60;2.17;;;;;;;20.39;46.41;98656.91;5137769;27;20058;-63
2023/04/30 09:26:51;;;;;;;9.90;2.60;;;;;;;22.08;45.26;98662.06;5138108;27;20454;-63
2023/04/30 09:29:17;;;;;;;6.05;2.70;;;;;;;23.18;44.38;98649.88;5137624;28;20110;-62
2023/04/30 09:31:44;;;;;;;4.05;2.50;;;;;;;22.76;45.13;98653.16;5138106;28;20043;-60
2023/04/30 09:34:10;;;;;;;3.50;2.70;;;;;;;22.14;44.93;98642.72;5137923;27;20323;-59
2023/04/30 09:36:36;;;;;;;5.15;2.97;;;;;;;23.34;44.88;98641.19;5137784;27;20047;-65
2023/04/30 09:39:06;;;;;;;8.73;2.60;;;;;;;22.96;45.41;98636.78;5137575;28;20062;-65
2023/04/30 09:41:33;;;;;;;4.45;2.60;;;;;;;23.26;45.02;98645.53;5137532;28;20050;-62
2023/04/30 09:43:59;;;;;;;5.95;2.67;;;;;;;22.62;45.26;98637.69;5137651;28;20051;-63
2023/04/30 09:46:30;;;;;;;5.22;2.30;;;;;;;22.19;45.23;98636.59;5137586;28;20138;-64
2023/04/30 09:48:59;;;;;;;6.85;2.80;;;;;;;21.70;45.53;98637.16;5137851;28;20062;-58
2023/04/30 09:51:25;;;;;;;5.43;2.55;;;;;;;23.15;45.15;98631.97;5137076;27;20357;-59
2023/04/30 09:53:52;;;;;;;2.65;2.22;;;;;;;23.29;43.51;98629.81;5137766;28;20047;-61
2023/04/30 09:56:21;;;;;;;3.22;2.92;;;;;;;21.79;45.30;98616.88;5137387;28;20189;-61
2023/04/30 09:58:50;;;;;;;4.75;2.45;;;;;;;22.82;44.60;98626.13;5137536;27;20058;-64
2023/04/30 10:01:17;;;;;;;15.05;3.03;;;;;;;23.55;45.53;98617.09;5137473;27;20332;-59
2023/04/30 10:03:45;;;;;;;3.58;2.53;;;;;;;23.57;43.36;98611.84;5137210;27;20517;-57
2023/04/30 10:06:12;;;;;;;3.03;2.33;;;;;;;23.30;43.60;98621.00;5137425;27;20149;-57
2023/04/30 10:08:40;;;;;;;5.15;2.63;;;;;;;24.19;42.66;98617.06;5137389;28;20092;-58
2023/04/30 10:11:08;;;;;;;4.00;2.60;;;;;;;24.25;42.77;98617.19;5137446;27;20051;-58
2023/04/30 10:13:41;;;;;;;5.75;2.55;;;;;;;24.44;42.68;98601.13;5137097;28;20142;-64
2023/04/30 10:16:23;;;;;;;11.63;2.97;;;;;;;24.32;43.49;98607.66;5137526;28;20062;-60
2023/04/30 10:18:51;;;;;;;3.65;2.60;;;;;;;24.24;42.70;98603.66;5136906;28;20365;-59
2023/04/30 10:21:20;;;;;;;4.63;2.80;;;;;;;22.15;43.62;98604.41;5137440;28;20131;-65
2023/04/30 10:23:47;;;;;;;5.50;2.40;;;;;;;22.71;43.78;98600.66;5137127;28;20298;-60
2023/04/30 10:26:15;;;;;;;6.15;2.47;;;;;;;22.84;43.57;98595.72;5136894;28;20046;-59
2023/04/30 10:28:42;;;;;;;4.50;2.45;;;;;;;23.63;43.46;98606.41;5137174;28;20122;-59
2023/04/30 10:31:09;;;;;;;3.22;2.20;;;;;;;23.55;43.65;98600.31;5136840;28;20147;-63
2023/04/30 10:33:48;;;;;;;4.47;2.35;;;;;;;22.94;43.10;98602.91;5137224;27;20053;-60
2023/04/30 10:36:21;;;;;;;8.07;2.38;;;;;;;22.93;44.48;98592.22;5136880;27;20336;-57
2023/04/30 10:38:47;;;;;;;3.53;2.47;;;;;;;22.94;43.53;98596.53;5136752;27;20055;-65
2023/04/30 10:41:14;;;;;;;4.85;2.63;;;;;;;22.92;44.76;98599.75;5136732;28;20051;-57
2023/04/30 10:43:40;;;;;;;5.97;2.55;;;;;;;23.29;43.75;98587.88;5137246;28;20043;-63
2023/04/30 10:46:08;;;;;;;4.25;2.50;;;;;;;22.63;43.99;98583.41;5136704;28;20048;-59
2023/04/30 10:48:34;;;;;;;5.10;2.40;;;;;;;22.17;43.79;98585.22;5136426;28;20146;-58
2023/04/30 10:51:00;;;;;;;7.68;2.63;;;;;;;20.66;44.42;98590.47;5136508;28;20051;-65
2023/04/30 10:53:30;;;;;;;8.82;2.75;;;;;;;21.12;44.80;98596.47;5136825;27;20051;-58
2023/04/30 10:55:59;;;;;;;5.32;2.10;;;;;;;21.51;44.32;98594.38;5136793;28;20095;-59
2023/04/30 10:58:26;;;;;;;2.05;1.52;;;;;;;21.78;44.77;98590.22;5136424;28;20095;-60
2023/04/30 11:01:03;;;;;;;4.20;2.10;;;;;;;20.99;43.88;98587.38;5136827;27;20051;-59
2023/04/30 11:03:31;;;;;;;2.97;2.08;;;;;;;20.73;44.93;98581.09;5138636;27;20051;-55
2023/04/30 11:06:02;;;;;;;3.15;2.00;;;;;;;20.26;46.10;98583.72;5140339;27;20138;-64
2023/04/30 11:08:32;;;;;;;5.00;1.88;;;;;;;19.98;45.66;98573.03;5139972;28;20054;-63
2023/04/30 11:11:00;;;;;;;5.05;2.70;;;;;;;19.90;46.84;98574.47;5140148;28;20051;-57
2023/04/30 11:13:27;;;;;;;6.90;1.85;;;;;;;20.00;46.63;98575.38;5140066;28;20086;-61
2023/04/30 11:15:53;;;;;;;4.72;2.03;;;;;;;20.01;47.60;98576.16;5139974;28;20134;-61
2023/04/30 11:18:19;;;;;;;3.83;2.45;;;;;;;20.33;46.55;98577.97;5140029;28;20145;-54
2023/04/30 11:20:50;;;;;;;3.47;2.13;;;;;;;19.34;47.11;98569.25;5139813;28;20051;-63
2023/04/30 11:23:21;;;;;;;8.02;1.98;;;;;;;19.66;46.91;98575.94;5140126;27;20321;-63
2023/04/30 11:25:48;;;;;;;4.18;1.70;;;;;;;20.50;46.18;98567.50;5139700;28;20137;-64
2023/04/30 11:28:16;;;;;;;3.30;2.10;;;;;;;20.80;46.70;98568.94;5140096;27;20058;-62
2023/04/30 11:30:50;;;;;;;3.55;1.73;;;;;;;20.85;45.99;98554.41;5139757;28;20055;-59
2023/04/30 11:33:16;;;;;;;4.85;2.15;;;;;;;19.91;48.56;98552.97;5140270;27;20043;-60